createdAt,value
2019-02-15T00:01:08.446Z,54.90
2019-02-15T00:03:37.715Z,55.26
2019-02-15T00:06:06.797Z,55.09
2019-02-15T00:08:35.876Z,55.03
2019-02-15T00:11:04.974Z,55.34
2019-02-15T00:13:34.054Z,56.13
2019-02-15T00:16:03.145Z,55.67
2019-02-15T00:18:51.206Z,55.03
2019-02-15T00:21:22.718Z,54.75
2019-02-15T00:23:51.793Z,54.53
2019-02-15T00:26:20.897Z,54.20
2019-02-15T00:28:49.966Z,54.73
2019-02-15T00:31:21.087Z,53.97
2019-02-15T00:33:50.170Z,54.58
2019-02-15T00:36:19.286Z,53.80
2019-02-15T00:38:48.393Z,53.18
2019-02-15T00:41:17.495Z,53.13
2019-02-15T00:43:46.591Z,53.33
2019-02-15T00:46:33.197Z,54.05
2019-02-15T00:49:03.277Z,54.36
2019-02-15T00:51:52.840Z,54.69
2019-02-15T00:54:43.644Z,54.81
2019-02-15T00:57:31.721Z,56.07
2019-02-15T01:00:10.782Z,56.96
2019-02-15T01:02:56.905Z,56.98
2019-02-15T01:05:56.927Z,56.86
2019-02-15T01:08:35.349Z,56.67
2019-02-15T01:11:38.616Z,58.66
2019-02-15T01:14:07.705Z,60.57
2019-02-15T01:16:36.786Z,67.05
2019-02-15T01:19:05.881Z,69.54
2019-02-15T01:21:34.969Z,71.34
2019-02-15T01:24:04.067Z,72.92
2019-02-15T01:26:39.915Z,72.99
2019-02-15T01:29:28.549Z,73.71
2019-02-15T01:32:19.629Z,74.12
2019-02-15T01:35:06.399Z,74.96
2019-02-15T01:37:50.905Z,75.30
2019-02-15T01:40:38.959Z,76.47
2019-02-15T01:43:25.906Z,77.25
2019-02-15T01:46:07.250Z,78.26
2019-02-15T01:48:36.346Z,78.26
2019-02-15T01:51:05.416Z,78.27
2019-02-15T01:53:34.492Z,77.25
2019-02-15T01:56:03.595Z,77.98
2019-02-15T01:58:32.677Z,78.90
2019-02-15T02:01:01.844Z,78.89
2019-02-15T02:03:30.916Z,78.74
2019-02-15T02:06:00.020Z,79.25
2019-02-15T02:08:29.570Z,79.63
2019-02-15T02:10:58.664Z,80.02
2019-02-15T02:13:27.740Z,79.99
2019-02-15T02:15:56.841Z,80.41
2019-02-15T02:18:25.921Z,80.37
2019-02-15T02:20:55.025Z,80.50
2019-02-15T02:23:24.104Z,77.90
2019-02-15T02:25:53.205Z,77.06
2019-02-15T02:28:22.277Z,76.57
2019-02-15T02:30:51.353Z,74.85
2019-02-15T02:33:20.481Z,71.77
2019-02-15T02:35:49.553Z,70.20
2019-02-15T02:38:18.673Z,67.02
2019-02-15T02:40:47.754Z,66.17
2019-02-15T02:43:16.854Z,65.00
2019-02-15T02:45:45.935Z,64.44
2019-02-15T02:48:15.033Z,64.63
2019-02-15T02:50:44.123Z,64.50
2019-02-15T02:53:13.224Z,65.34
2019-02-15T02:55:42.301Z,61.82
2019-02-15T02:58:11.465Z,59.91
2019-02-15T03:00:40.540Z,58.38
2019-02-15T03:03:09.644Z,57.43
2019-02-15T03:05:38.726Z,56.70
2019-02-15T03:08:07.830Z,57.05
2019-02-15T03:10:36.908Z,57.44
2019-02-15T03:13:06.006Z,59.96
2019-02-15T03:15:35.077Z,62.01
2019-02-15T03:18:04.189Z,67.69
2019-02-15T03:20:33.275Z,70.76
2019-02-15T03:23:02.359Z,71.78
2019-02-15T03:25:31.458Z,73.39
2019-02-15T03:28:00.531Z,73.51
2019-02-15T03:30:29.630Z,74.70
2019-02-15T03:32:58.699Z,74.71
2019-02-15T03:35:27.820Z,75.79
2019-02-15T03:38:10.361Z,76.45
2019-02-15T03:40:44.569Z,76.58
2019-02-15T03:43:13.653Z,76.29
2019-02-15T03:45:43.418Z,76.77
2019-02-15T03:48:12.497Z,76.77
2019-02-15T03:50:41.597Z,76.89
2019-02-15T03:53:10.676Z,77.39
2019-02-15T03:55:39.777Z,77.44
2019-02-15T03:58:08.853Z,77.55
2019-02-15T04:00:38.008Z,77.53
2019-02-15T04:03:07.078Z,78.50
2019-02-15T04:05:36.175Z,78.97
2019-02-15T04:08:05.281Z,79.01
2019-02-15T04:10:34.442Z,79.27
2019-02-15T04:13:03.518Z,79.75
2019-02-15T04:15:32.627Z,79.87
2019-02-15T04:18:01.708Z,80.21
2019-02-15T04:20:30.807Z,79.98
2019-02-15T04:22:59.889Z,80.39
2019-02-15T04:25:28.992Z,80.71
2019-02-15T04:27:58.077Z,81.00
2019-02-15T04:30:27.159Z,80.84
2019-02-15T04:32:56.263Z,81.13
2019-02-15T04:35:25.353Z,81.60
2019-02-15T04:37:54.479Z,81.00
2019-02-15T04:40:23.565Z,81.60
2019-02-15T04:42:52.667Z,80.79
2019-02-15T04:45:21.743Z,80.65
2019-02-15T04:47:50.847Z,80.79
2019-02-15T04:50:19.984Z,80.44
2019-02-15T04:52:49.091Z,79.72
2019-02-15T04:55:18.166Z,80.55
2019-02-15T04:57:47.266Z,81.03
2019-02-15T05:00:16.338Z,81.04
2019-02-15T05:02:45.442Z,81.26
2019-02-15T05:05:16.893Z,81.80
2019-02-15T05:07:45.990Z,82.03
2019-02-15T05:10:15.092Z,82.07
2019-02-15T05:12:44.172Z,82.31
2019-02-15T05:15:13.264Z,81.70
2019-02-15T05:17:42.336Z,82.39
2019-02-15T05:20:11.446Z,82.62
2019-02-15T05:22:40.531Z,81.95
2019-02-15T05:25:09.643Z,82.03
2019-02-15T05:27:38.738Z,82.33
2019-02-15T05:30:07.906Z,82.73
2019-02-15T05:32:37.001Z,81.89
2019-02-15T05:35:06.491Z,81.74
2019-02-15T05:37:35.640Z,80.99
2019-02-15T05:40:04.923Z,81.15
2019-02-15T05:42:34.003Z,79.55
2019-02-15T05:45:04.435Z,78.89
2019-02-15T05:47:33.790Z,78.79
2019-02-15T05:50:02.901Z,78.40
2019-02-15T05:52:31.983Z,77.91
2019-02-15T05:55:01.076Z,76.58
2019-02-15T05:57:30.158Z,75.13
2019-02-15T05:59:59.254Z,71.60
2019-02-15T06:02:28.355Z,72.56
2019-02-15T06:04:57.434Z,71.83
2019-02-15T06:07:26.507Z,70.82
2019-02-15T06:09:55.621Z,69.14
2019-02-15T06:12:24.704Z,68.37
2019-02-15T06:14:53.777Z,67.12
2019-02-15T06:17:22.871Z,66.46
2019-02-15T06:19:51.960Z,65.97
2019-02-15T06:22:21.061Z,64.66
2019-02-15T06:24:50.143Z,63.82
2019-02-15T06:27:19.283Z,64.42
2019-02-15T06:29:48.312Z,63.18
2019-02-15T06:32:17.405Z,61.97
2019-02-15T06:34:46.498Z,62.19
2019-02-15T06:37:15.612Z,62.07
2019-02-15T06:39:44.684Z,60.67
2019-02-15T06:42:13.780Z,60.52
2019-02-15T06:44:42.857Z,59.70
2019-02-15T06:47:11.955Z,59.22
2019-02-15T06:49:41.031Z,58.96
2019-02-15T06:52:10.121Z,59.80
2019-02-15T06:54:39.195Z,58.20
2019-02-15T06:57:08.295Z,58.02
2019-02-15T07:00:05.551Z,58.31
2019-02-15T07:02:39.598Z,58.11
2019-02-15T07:05:19.000Z,57.93
2019-02-15T07:07:48.100Z,57.90
2019-02-15T07:10:17.179Z,57.74
2019-02-15T07:12:46.274Z,56.83
2019-02-15T07:15:15.350Z,56.77
2019-02-15T07:17:44.422Z,56.39
2019-02-15T07:20:13.521Z,56.64
2019-02-15T07:22:42.601Z,56.77
2019-02-15T07:25:11.727Z,56.25
2019-02-15T07:27:40.796Z,55.83
2019-02-15T07:30:11.493Z,55.82
2019-02-15T07:32:40.565Z,54.77
2019-02-15T07:35:09.694Z,55.55
2019-02-15T07:37:38.789Z,54.64
2019-02-15T07:40:08.467Z,54.75
2019-02-15T07:42:37.542Z,54.17
2019-02-15T07:45:07.443Z,54.25
2019-02-15T07:47:36.521Z,48.20
2019-02-15T07:50:06.887Z,41.99
2019-02-15T07:52:35.964Z,40.23
2019-02-15T07:55:05.624Z,40.57
2019-02-15T07:57:34.693Z,42.95
2019-02-15T08:00:03.893Z,43.97
2019-02-15T08:02:32.962Z,45.71
2019-02-15T08:05:02.113Z,47.26
2019-02-15T08:07:31.205Z,48.06
2019-02-15T08:10:00.283Z,46.22
2019-02-15T08:12:29.377Z,45.87
2019-02-15T08:14:58.448Z,44.73
2019-02-15T08:17:27.545Z,43.30
2019-02-15T08:19:56.622Z,43.50
2019-02-15T08:22:25.724Z,45.33
2019-02-15T08:24:54.802Z,44.72
2019-02-15T08:27:23.908Z,43.93
2019-02-15T08:29:52.982Z,44.68
2019-02-15T08:32:22.083Z,44.29
2019-02-15T08:34:51.162Z,44.06
2019-02-15T08:37:20.281Z,43.50
2019-02-15T08:39:49.360Z,42.89
2019-02-15T08:42:18.468Z,39.26
2019-02-15T08:44:47.555Z,34.91
2019-02-15T08:47:16.668Z,30.52
2019-02-15T08:49:45.767Z,27.77
2019-02-15T08:52:14.863Z,25.98
2019-02-15T08:54:43.951Z,22.10
2019-02-15T08:57:13.067Z,21.74
2019-02-15T08:59:42.155Z,19.83
2019-02-15T09:02:29.508Z,19.17
2019-02-15T09:04:58.596Z,19.40
2019-02-15T09:07:27.679Z,18.05
2019-02-15T09:09:56.790Z,18.16
2019-02-15T09:12:25.884Z,17.70
2019-02-15T09:14:54.985Z,18.41
2019-02-15T09:17:24.063Z,17.60
2019-02-15T09:19:53.177Z,14.25
2019-02-15T09:22:22.258Z,15.03
2019-02-15T09:24:51.357Z,17.17
2019-02-15T09:27:31.819Z,18.26
2019-02-15T09:30:00.919Z,18.46
2019-02-15T09:32:29.994Z,17.61
2019-02-15T09:34:59.098Z,17.59
2019-02-15T09:37:28.207Z,16.94
2019-02-15T09:39:57.401Z,17.78
2019-02-15T09:42:26.485Z,15.92
2019-02-15T09:44:55.592Z,14.86
2019-02-15T09:47:24.671Z,16.16
2019-02-15T09:49:53.777Z,17.57
2019-02-15T09:52:22.856Z,17.79
2019-02-15T09:54:51.954Z,15.90
2019-02-15T09:57:21.044Z,16.79
2019-02-15T09:59:50.148Z,15.85
2019-02-15T10:02:19.226Z,17.81
2019-02-15T10:04:48.340Z,16.30
2019-02-15T10:07:17.444Z,16.12
2019-02-15T10:09:46.532Z,16.78
2019-02-15T10:12:15.630Z,15.49
2019-02-15T10:14:44.729Z,15.88
2019-02-15T10:17:13.811Z,15.82
2019-02-15T10:19:42.889Z,16.57
2019-02-15T10:22:11.995Z,16.54
2019-02-15T10:24:41.090Z,16.17
2019-02-15T10:27:10.181Z,16.29
2019-02-15T10:29:39.261Z,15.72
2019-02-15T10:32:08.370Z,16.75
2019-02-15T10:34:37.529Z,15.59
2019-02-15T10:37:06.634Z,14.91
2019-02-15T10:39:35.743Z,15.49
2019-02-15T10:42:04.847Z,14.35
2019-02-15T10:44:33.931Z,14.93
2019-02-15T10:47:03.051Z,14.65
2019-02-15T10:49:32.138Z,13.36
2019-02-15T10:52:01.252Z,13.77
2019-02-15T10:54:30.335Z,13.20
2019-02-15T10:56:59.448Z,14.85
2019-02-15T10:59:28.541Z,14.46
2019-02-15T11:01:57.636Z,15.12
2019-02-15T11:04:26.718Z,15.88
2019-02-15T11:06:55.832Z,14.65
2019-02-15T11:09:24.914Z,14.93
2019-02-15T11:11:54.025Z,14.67
2019-02-15T11:14:23.104Z,14.53
2019-02-15T11:16:52.192Z,15.30
2019-02-15T11:19:21.300Z,14.17
2019-02-15T11:21:50.383Z,14.64
2019-02-15T11:24:19.488Z,15.25
2019-02-15T11:26:48.580Z,14.44
2019-02-15T11:29:17.688Z,14.20
2019-02-15T11:31:46.769Z,13.72
2019-02-15T11:34:15.885Z,14.93
2019-02-15T11:36:44.976Z,13.42
2019-02-15T11:39:14.124Z,12.62
2019-02-15T11:41:43.214Z,12.76
2019-02-15T11:44:12.324Z,12.91
2019-02-15T11:46:41.406Z,14.58
2019-02-15T11:49:10.516Z,13.60
2019-02-15T11:51:39.604Z,13.32
2019-02-15T11:54:08.712Z,14.89
2019-02-15T11:56:37.805Z,14.89
2019-02-15T11:59:06.912Z,12.72
2019-02-15T12:01:35.989Z,12.13
2019-02-15T12:04:05.094Z,12.86
2019-02-15T12:06:34.183Z,14.34
2019-02-15T12:09:04.326Z,12.66
2019-02-15T12:11:33.401Z,13.72
2019-02-15T12:14:02.512Z,14.18
2019-02-15T12:16:31.595Z,13.66
2019-02-15T12:19:00.704Z,13.32
2019-02-15T12:21:29.795Z,13.78
2019-02-15T12:23:58.911Z,14.52
2019-02-15T12:26:27.991Z,14.52
2019-02-15T12:28:57.069Z,14.10
2019-02-15T12:31:26.178Z,14.97
2019-02-15T12:33:55.262Z,14.38
2019-02-15T12:36:24.375Z,14.77
2019-02-15T12:38:53.488Z,13.66
2019-02-15T12:41:22.596Z,14.86
2019-02-15T12:43:51.679Z,14.11
2019-02-15T12:46:20.789Z,15.07
2019-02-15T12:48:49.870Z,15.14
2019-02-15T12:51:18.971Z,15.70
2019-02-15T12:53:48.079Z,14.29
2019-02-15T12:56:17.157Z,13.05
2019-02-15T12:58:46.241Z,14.69
2019-02-15T13:01:15.351Z,14.38
2019-02-15T13:03:44.439Z,13.44
2019-02-15T13:06:13.539Z,14.00
2019-02-15T13:08:42.619Z,13.38
2019-02-15T13:11:11.722Z,14.13
2019-02-15T13:13:40.810Z,14.63
2019-02-15T13:16:09.912Z,14.65
2019-02-15T13:18:38.993Z,14.09
2019-02-15T13:21:08.094Z,14.62
2019-02-15T13:23:37.182Z,13.82
2019-02-15T13:26:08.549Z,14.21
2019-02-15T13:28:37.127Z,14.48
2019-02-15T13:31:06.237Z,15.29
2019-02-15T13:33:35.326Z,14.95
2019-02-15T13:36:04.520Z,14.28
2019-02-15T13:38:33.648Z,14.59
2019-02-15T13:41:02.753Z,15.06
2019-02-15T13:43:31.941Z,14.70
2019-02-15T13:46:01.021Z,15.31
2019-02-15T13:48:30.157Z,15.35
2019-02-15T13:50:59.215Z,14.96
2019-02-15T13:53:28.316Z,15.63
2019-02-15T13:55:57.392Z,16.38
2019-02-15T13:58:26.507Z,14.58
2019-02-15T14:00:55.584Z,15.48
2019-02-15T14:03:24.686Z,15.79
2019-02-15T14:05:53.767Z,15.20
2019-02-15T14:08:22.875Z,16.62
2019-02-15T14:10:51.957Z,15.63
2019-02-15T14:13:21.071Z,16.69
2019-02-15T14:15:50.155Z,16.83
2019-02-15T14:18:19.260Z,16.44
2019-02-15T14:20:48.353Z,17.11
2019-02-15T14:23:17.482Z,16.73
2019-02-15T14:25:46.562Z,17.21
2019-02-15T14:28:15.644Z,18.27
2019-02-15T14:30:44.745Z,18.20
2019-02-15T14:33:13.827Z,18.44
2019-02-15T14:35:42.928Z,17.23
2019-02-15T14:38:12.041Z,18.13
2019-02-15T14:40:41.209Z,17.58
2019-02-15T14:43:10.322Z,17.22
2019-02-15T14:45:39.427Z,18.07
2019-02-15T14:48:08.510Z,19.25
2019-02-15T14:50:37.618Z,17.91
2019-02-15T14:53:06.715Z,18.31
2019-02-15T14:55:35.819Z,17.75
2019-02-15T14:58:04.903Z,18.00
2019-02-15T15:00:34.015Z,19.00
2019-02-15T15:03:03.097Z,20.62
2019-02-15T15:05:32.203Z,19.85
2019-02-15T15:08:01.286Z,19.15
2019-02-15T15:10:30.424Z,19.90
2019-02-15T15:12:59.560Z,19.94
2019-02-15T15:15:28.665Z,20.03
2019-02-15T15:18:02.476Z,20.99
2019-02-15T15:20:28.577Z,20.53
2019-02-15T15:22:57.664Z,20.39
2019-02-15T15:25:26.768Z,19.45
2019-02-15T15:27:55.882Z,20.58
2019-02-15T15:30:24.984Z,21.10
2019-02-15T15:32:54.067Z,22.16
2019-02-15T15:35:23.166Z,22.73
2019-02-15T15:37:52.266Z,22.65
2019-02-15T15:40:21.375Z,22.60
2019-02-15T15:42:50.474Z,22.97
2019-02-15T15:45:19.555Z,22.92
2019-02-15T15:47:48.659Z,24.39
2019-02-15T15:50:17.748Z,26.22
2019-02-15T15:52:46.867Z,25.09
2019-02-15T15:55:17.675Z,27.75
2019-02-15T15:57:47.048Z,27.38
2019-02-15T16:00:16.235Z,30.39
2019-02-15T16:02:45.348Z,31.77
2019-02-15T16:05:14.475Z,33.42
2019-02-15T16:07:44.065Z,35.06
2019-02-15T16:10:13.469Z,35.88
2019-02-15T16:12:42.627Z,37.13
2019-02-15T16:15:11.978Z,37.28
2019-02-15T16:17:41.090Z,37.82
2019-02-15T16:20:10.497Z,38.19
2019-02-15T16:22:39.618Z,38.56
2019-02-15T16:25:08.710Z,39.56
2019-02-15T16:27:37.818Z,40.00
2019-02-15T16:30:07.535Z,39.97
2019-02-15T16:32:36.620Z,39.71
2019-02-15T16:35:06.204Z,40.35
2019-02-15T16:37:35.299Z,40.85
2019-02-15T16:40:04.614Z,40.15
2019-02-15T16:42:33.777Z,40.47
2019-02-15T16:45:02.884Z,40.96
2019-02-15T16:47:31.987Z,41.23
2019-02-15T16:50:01.100Z,42.37
2019-02-15T16:52:30.183Z,41.92
2019-02-15T16:54:59.282Z,42.32
2019-02-15T16:57:28.372Z,43.20
2019-02-15T16:59:57.491Z,43.16
2019-02-15T17:02:26.636Z,42.88
2019-02-15T17:04:55.730Z,43.38
2019-02-15T17:07:24.886Z,43.75
2019-02-15T17:09:53.986Z,43.56
2019-02-15T17:12:23.064Z,44.01
2019-02-15T17:14:52.171Z,44.36
2019-02-15T17:17:21.576Z,44.68
2019-02-15T17:19:50.678Z,44.80
2019-02-15T17:22:19.759Z,44.64
2019-02-15T17:24:48.861Z,44.94
2019-02-15T17:27:17.943Z,45.16
2019-02-15T17:29:47.039Z,45.11
2019-02-15T17:32:16.136Z,45.51
2019-02-15T17:34:45.238Z,45.70
2019-02-15T17:37:14.316Z,46.15
2019-02-15T17:39:43.421Z,45.97
2019-02-15T17:42:12.533Z,45.89
2019-02-15T17:44:41.750Z,46.54
2019-02-15T17:47:10.850Z,46.81
2019-02-15T17:49:40.900Z,47.25
2019-02-15T17:52:10.002Z,47.00
2019-02-15T17:54:40.076Z,47.29
2019-02-15T17:57:09.184Z,47.46
2019-02-15T17:59:38.517Z,48.00
2019-02-15T18:02:09.358Z,47.88
2019-02-15T18:04:38.459Z,48.13
2019-02-15T18:07:08.649Z,47.92
2019-02-15T18:09:37.990Z,47.91
2019-02-15T18:12:07.088Z,48.14
2019-02-15T18:14:36.158Z,48.55
2019-02-15T18:17:05.255Z,48.40
2019-02-15T18:19:34.330Z,48.08
2019-02-15T18:22:04.193Z,48.04
2019-02-15T18:24:34.173Z,48.47
2019-02-15T18:27:04.799Z,48.20
2019-02-15T18:29:33.875Z,47.76
2019-02-15T18:32:03.747Z,48.61
2019-02-15T18:34:32.834Z,48.07
2019-02-15T18:37:01.946Z,48.04
2019-02-15T18:39:31.053Z,48.31
2019-02-15T18:42:00.129Z,47.93
2019-02-15T18:44:29.224Z,48.46
2019-02-15T18:46:58.306Z,48.38
2019-02-15T18:49:27.403Z,48.45
2019-02-15T18:51:56.473Z,48.26
2019-02-15T18:54:25.575Z,48.81
2019-02-15T18:56:54.661Z,48.80
2019-02-15T18:59:23.752Z,48.72
2019-02-15T19:01:52.831Z,48.00
2019-02-15T19:04:21.942Z,47.75
2019-02-15T19:06:51.021Z,47.49
2019-02-15T19:09:20.125Z,47.19
2019-02-15T19:11:49.205Z,47.43
2019-02-15T19:14:18.314Z,47.69
2019-02-15T19:16:48.298Z,47.72
2019-02-15T19:19:17.474Z,47.57
2019-02-15T19:21:47.677Z,47.70
2019-02-15T19:24:17.228Z,47.48
2019-02-15T19:26:46.310Z,47.84
2019-02-15T19:29:15.416Z,48.54
2019-02-15T19:31:44.494Z,48.96
2019-02-15T19:34:13.595Z,49.32
2019-02-15T19:36:42.675Z,49.46
2019-02-15T19:39:11.781Z,49.67
2019-02-15T19:41:40.882Z,49.10
2019-02-15T19:44:09.956Z,49.34
2019-02-15T19:46:39.058Z,49.23
2019-02-15T19:49:08.143Z,49.50
2019-02-15T19:51:37.247Z,50.12
2019-02-15T19:54:06.325Z,50.22
2019-02-15T19:56:35.422Z,50.77
2019-02-15T19:59:04.507Z,50.57
2019-02-15T20:01:33.608Z,50.66
2019-02-15T20:04:02.699Z,51.06
2019-02-15T20:06:31.803Z,50.81
2019-02-15T20:09:00.875Z,50.83
2019-02-15T20:11:29.970Z,51.45
2019-02-15T20:14:00.129Z,50.89
2019-02-15T20:16:29.331Z,50.52
2019-02-15T20:18:58.407Z,50.59
2019-02-15T20:21:27.510Z,50.23
2019-02-15T20:23:56.595Z,50.34
2019-02-15T20:26:25.697Z,50.40
2019-02-15T20:28:54.794Z,50.33
2019-02-15T20:31:23.906Z,50.31
2019-02-15T20:33:52.980Z,50.44
2019-02-15T20:36:22.084Z,50.44
2019-02-15T20:38:51.204Z,50.77
2019-02-15T20:41:20.303Z,50.43
2019-02-15T20:43:49.382Z,50.82
2019-02-15T20:46:18.477Z,50.87
2019-02-15T20:48:47.571Z,50.87
2019-02-15T20:51:16.672Z,51.45
2019-02-15T20:53:45.757Z,51.46
2019-02-15T20:56:14.842Z,51.00
2019-02-15T20:58:43.930Z,51.72
2019-02-15T21:01:13.014Z,52.02
2019-02-15T21:03:42.118Z,51.74
2019-02-15T21:06:11.200Z,51.54
2019-02-15T21:08:40.307Z,51.75
2019-02-15T21:11:09.418Z,51.93
2019-02-15T21:13:38.486Z,52.04
2019-02-15T21:16:07.560Z,51.06
2019-02-15T21:18:36.679Z,52.07
2019-02-15T21:21:05.739Z,53.22
2019-02-15T21:23:34.836Z,53.74
2019-02-15T21:26:03.914Z,55.55
2019-02-15T21:28:33.020Z,55.88
2019-02-15T21:31:02.098Z,57.76
2019-02-15T21:33:31.198Z,57.14
2019-02-15T21:36:00.278Z,59.06
2019-02-15T21:38:29.391Z,60.46
2019-02-15T21:40:58.490Z,61.69
2019-02-15T21:43:27.591Z,62.95
2019-02-15T21:45:56.667Z,63.78
2019-02-15T21:48:25.775Z,64.39
2019-02-15T21:50:54.841Z,64.72
2019-02-15T21:53:23.919Z,65.85
2019-02-15T21:55:53.042Z,66.15
2019-02-15T21:58:22.155Z,66.34
2019-02-15T22:00:51.297Z,66.73
2019-02-15T22:03:20.374Z,67.39
2019-02-15T22:05:49.480Z,68.64
2019-02-15T22:08:18.559Z,69.33
2019-02-15T22:10:47.658Z,69.44
2019-02-15T22:13:16.734Z,70.45
2019-02-15T22:15:45.879Z,70.05
2019-02-15T22:18:14.935Z,70.15
2019-02-15T22:20:44.033Z,69.98
2019-02-15T22:23:13.110Z,70.62
2019-02-15T22:25:42.221Z,69.35
2019-02-15T22:28:11.298Z,69.82
2019-02-15T22:30:40.401Z,71.26
2019-02-15T22:33:09.702Z,71.61
2019-02-15T22:35:38.856Z,71.49
2019-02-15T22:38:08.119Z,72.22
2019-02-15T22:40:39.041Z,69.42
2019-02-15T22:43:14.502Z,65.56
2019-02-15T22:45:43.804Z,64.06
2019-02-15T22:48:13.007Z,64.04
2019-02-15T22:50:42.119Z,66.56
2019-02-15T22:53:11.189Z,68.95
2019-02-15T22:55:40.292Z,68.79
2019-02-15T22:58:09.436Z,68.27
2019-02-15T23:00:51.020Z,68.40
2019-02-15T23:03:22.377Z,66.88
2019-02-15T23:05:52.693Z,66.83
2019-02-15T23:08:21.772Z,63.89
2019-02-15T23:10:50.964Z,62.46
2019-02-15T23:13:20.037Z,62.80
2019-02-15T23:15:49.137Z,63.44
2019-02-15T23:18:18.974Z,65.76
2019-02-15T23:20:48.293Z,65.92
2019-02-15T23:23:17.358Z,68.25
2019-02-15T23:25:46.433Z,68.86
2019-02-15T23:28:15.529Z,67.59
2019-02-15T23:30:44.601Z,68.12
2019-02-15T23:33:13.700Z,67.57
2019-02-15T23:35:42.777Z,68.05
2019-02-15T23:38:11.883Z,69.92
2019-02-15T23:40:40.995Z,69.94
2019-02-15T23:43:10.095Z,70.78
2019-02-15T23:45:39.192Z,71.66
2019-02-15T23:48:08.289Z,70.40
2019-02-15T23:50:37.370Z,69.11
2019-02-15T23:53:06.472Z,71.34
2019-02-15T23:55:35.562Z,72.65
2019-02-15T23:58:04.659Z,73.34
